createdAt,value
2018-03-23T00:00:02.427Z,17.75
2018-03-23T00:02:29.136Z,13.98
2018-03-23T00:04:55.871Z,15.55
2018-03-23T00:07:22.592Z,18.12
2018-03-23T00:09:49.336Z,17.50
2018-03-23T00:12:16.052Z,19.17
2018-03-23T00:14:42.770Z,14.57
2018-03-23T00:17:09.512Z,19.15
2018-03-23T00:19:36.208Z,18.17
2018-03-23T00:22:02.922Z,17.05
2018-03-23T00:24:29.624Z,17.35
2018-03-23T00:26:56.335Z,18.08
2018-03-23T00:29:23.037Z,17.25
2018-03-23T00:31:49.733Z,19.02
2018-03-23T00:34:16.526Z,17.87
2018-03-23T00:36:43.228Z,17.73
2018-03-23T00:39:09.959Z,15.40
2018-03-23T00:41:36.667Z,18.23
2018-03-23T00:44:03.359Z,15.00
2018-03-23T00:46:30.082Z,16.62
2018-03-23T00:48:56.783Z,17.37
2018-03-23T00:51:23.488Z,15.77
2018-03-23T00:53:50.187Z,15.55
2018-03-23T00:56:16.894Z,15.60
2018-03-23T00:58:44.334Z,15.70
2018-03-23T01:01:11.044Z,15.82
2018-03-23T01:03:37.766Z,16.12
2018-03-23T01:06:04.475Z,14.60
2018-03-23T01:08:31.181Z,16.95
2018-03-23T01:10:57.888Z,14.10
2018-03-23T01:13:24.586Z,14.87
2018-03-23T01:15:51.316Z,17.37
2018-03-23T01:18:18.011Z,18.00
2018-03-23T01:20:44.708Z,15.68
2018-03-23T01:23:11.412Z,16.10
2018-03-23T01:25:38.118Z,16.62
2018-03-23T01:28:04.823Z,16.92
2018-03-23T01:30:31.526Z,15.82
2018-03-23T01:32:58.229Z,14.38
2018-03-23T01:35:24.956Z,13.77
2018-03-23T01:37:51.654Z,15.85
2018-03-23T01:40:18.362Z,14.25
2018-03-23T01:42:45.088Z,14.63
2018-03-23T01:45:11.813Z,14.05
2018-03-23T01:47:38.548Z,15.60
2018-03-23T01:50:05.261Z,13.07
2018-03-23T01:52:31.963Z,16.87
2018-03-23T01:54:58.717Z,15.93
2018-03-23T01:57:25.426Z,16.48
2018-03-23T01:59:52.127Z,15.20
2018-03-23T02:02:18.837Z,16.35
2018-03-23T02:04:45.543Z,18.75
2018-03-23T02:07:12.239Z,17.50
2018-03-23T02:09:38.955Z,17.02
2018-03-23T02:12:05.648Z,15.65
2018-03-23T02:14:32.344Z,21.70
2018-03-23T02:16:59.107Z,19.73
2018-03-23T02:19:25.792Z,19.37
2018-03-23T02:21:52.500Z,56.63
2018-03-23T02:24:19.251Z,26.08
2018-03-23T02:26:46.003Z,34.63
2018-03-23T02:29:12.699Z,40.22
2018-03-23T02:31:39.426Z,15.80
2018-03-23T02:34:06.142Z,10.25
2018-03-23T02:36:32.839Z,7.85
2018-03-23T02:38:59.531Z,10.45
2018-03-23T02:41:26.248Z,8.95
2018-03-23T02:43:52.944Z,9.38
2018-03-23T02:46:19.709Z,10.63
2018-03-23T02:48:46.419Z,12.00
2018-03-23T02:51:13.144Z,8.27
2018-03-23T02:53:39.873Z,11.85
2018-03-23T02:56:06.573Z,7.85
2018-03-23T02:58:33.283Z,9.30
2018-03-23T03:01:00.009Z,10.80
2018-03-23T03:03:26.738Z,9.25
2018-03-23T03:05:53.466Z,13.60
2018-03-23T03:08:20.189Z,9.93
2018-03-23T03:10:46.902Z,9.63
2018-03-23T03:13:13.591Z,10.55
2018-03-23T03:15:40.343Z,18.42
2018-03-23T03:18:07.051Z,11.12
2018-03-23T03:20:33.750Z,9.82
2018-03-23T03:23:00.449Z,9.80
2018-03-23T03:25:27.143Z,9.15
2018-03-23T03:27:53.881Z,8.60
2018-03-23T03:30:20.596Z,9.52
2018-03-23T03:32:47.307Z,9.85
2018-03-23T03:35:13.991Z,8.68
2018-03-23T03:37:40.712Z,8.15
2018-03-23T03:40:07.402Z,8.40
2018-03-23T03:42:34.102Z,8.77
2018-03-23T03:45:00.809Z,10.48
2018-03-23T03:47:27.502Z,8.98
2018-03-23T03:49:54.240Z,8.60
2018-03-23T03:52:20.911Z,8.45
2018-03-23T03:54:47.599Z,10.38
2018-03-23T03:57:14.296Z,10.30
2018-03-23T03:59:40.990Z,9.73
2018-03-23T04:02:07.700Z,9.20
2018-03-23T04:04:34.381Z,7.37
2018-03-23T04:07:01.052Z,8.63
2018-03-23T04:09:27.736Z,8.60
2018-03-23T04:11:54.462Z,10.43
2018-03-23T04:14:21.136Z,8.45
2018-03-23T04:16:47.811Z,12.18
2018-03-23T04:19:14.480Z,9.52
2018-03-23T04:21:41.160Z,10.45
2018-03-23T04:24:07.856Z,9.43
2018-03-23T04:26:34.536Z,11.00
2018-03-23T04:29:01.245Z,9.88
2018-03-23T04:31:27.952Z,9.50
2018-03-23T04:33:54.632Z,10.30
2018-03-23T04:36:21.304Z,10.90
2018-03-23T04:38:47.992Z,12.60
2018-03-23T04:41:14.673Z,15.00
2018-03-23T04:43:41.344Z,12.23
2018-03-23T04:46:08.204Z,9.30
2018-03-23T04:48:34.880Z,9.65
2018-03-23T04:51:01.557Z,10.45
2018-03-23T04:53:28.232Z,11.02
2018-03-23T04:55:54.927Z,11.52
2018-03-23T04:58:21.602Z,12.88
2018-03-23T05:00:48.302Z,12.37
2018-03-23T05:03:14.982Z,11.93
2018-03-23T05:05:41.660Z,11.80
2018-03-23T05:08:08.361Z,12.48
2018-03-23T05:10:35.039Z,14.30
2018-03-23T05:13:01.720Z,11.38
2018-03-23T05:15:28.397Z,13.73
2018-03-23T05:17:55.076Z,14.65
2018-03-23T05:20:21.752Z,15.32
2018-03-23T05:22:48.442Z,13.68
2018-03-23T05:25:15.152Z,14.52
2018-03-23T05:27:41.872Z,14.73
2018-03-23T05:30:08.548Z,14.60
2018-03-23T05:32:35.237Z,13.55
2018-03-23T05:35:01.914Z,15.50
2018-03-23T05:37:28.583Z,14.90
2018-03-23T05:39:55.281Z,14.75
2018-03-23T05:42:21.955Z,15.48
2018-03-23T05:44:48.654Z,16.30
2018-03-23T05:47:15.334Z,13.23
2018-03-23T05:49:42.035Z,14.90
2018-03-23T05:52:08.740Z,16.33
2018-03-23T05:54:35.439Z,15.25
2018-03-23T05:57:02.118Z,16.70
2018-03-23T05:59:28.792Z,12.43
2018-03-23T06:01:55.484Z,15.05
2018-03-23T06:04:22.162Z,17.80
2018-03-23T06:06:48.857Z,14.65
2018-03-23T06:09:15.535Z,15.05
2018-03-23T06:11:42.236Z,14.80
2018-03-23T06:14:08.913Z,16.15
2018-03-23T06:16:35.612Z,15.00
2018-03-23T06:19:02.293Z,13.30
2018-03-23T06:21:29.016Z,13.62
2018-03-23T06:23:55.701Z,14.48
2018-03-23T06:26:22.376Z,15.57
2018-03-23T06:28:49.056Z,12.10
2018-03-23T06:31:15.737Z,12.95
2018-03-23T06:33:42.421Z,14.82
2018-03-23T06:36:09.097Z,15.02
2018-03-23T06:38:35.801Z,18.12
2018-03-23T06:41:02.500Z,15.50
2018-03-23T06:43:29.180Z,17.87
2018-03-23T06:45:55.874Z,14.00
2018-03-23T06:48:22.547Z,14.00
2018-03-23T06:50:49.312Z,16.33
2018-03-23T06:53:15.982Z,15.85
2018-03-23T06:55:42.672Z,15.52
2018-03-23T06:58:09.354Z,16.98
2018-03-23T07:00:36.030Z,15.80
2018-03-23T07:03:02.717Z,17.60
2018-03-23T07:05:29.397Z,19.65
2018-03-23T07:07:56.080Z,15.93
2018-03-23T07:10:22.760Z,16.73
2018-03-23T07:12:49.457Z,13.98
2018-03-23T07:15:16.135Z,17.48
2018-03-23T07:17:42.853Z,15.15
2018-03-23T07:20:09.600Z,13.88
2018-03-23T07:22:36.280Z,15.13
2018-03-23T07:25:02.972Z,14.60
2018-03-23T07:27:29.681Z,17.05
2018-03-23T07:29:56.365Z,17.08
2018-03-23T07:32:23.040Z,12.75
2018-03-23T07:34:49.773Z,13.10
2018-03-23T07:37:16.505Z,17.58
2018-03-23T07:39:43.194Z,16.33
2018-03-23T07:42:09.873Z,14.50
2018-03-23T07:44:36.544Z,17.98
2018-03-23T07:47:03.221Z,15.25
2018-03-23T07:49:29.900Z,16.30
2018-03-23T07:51:56.642Z,19.27
2018-03-23T07:54:23.316Z,19.90
2018-03-23T07:56:49.998Z,17.10
2018-03-23T07:59:16.682Z,16.50
2018-03-23T08:01:43.359Z,13.98
2018-03-23T08:04:10.049Z,14.87
2018-03-23T08:06:36.735Z,16.62
2018-03-23T08:09:03.436Z,13.35
2018-03-23T08:11:30.115Z,15.23
2018-03-23T08:13:56.818Z,13.55
2018-03-23T08:16:23.507Z,11.65
2018-03-23T08:18:50.180Z,12.60
2018-03-23T08:21:16.956Z,13.02
2018-03-23T08:23:43.632Z,14.48
2018-03-23T08:26:10.335Z,14.15
2018-03-23T08:28:37.018Z,12.95
2018-03-23T08:31:03.732Z,13.50
2018-03-23T08:33:30.395Z,13.40
2018-03-23T08:35:57.076Z,12.10
2018-03-23T08:38:23.774Z,13.95
2018-03-23T08:40:50.448Z,13.30
2018-03-23T08:43:17.144Z,12.30
2018-03-23T08:45:43.820Z,11.50
2018-03-23T08:48:10.500Z,10.13
2018-03-23T08:50:37.179Z,10.07
2018-03-23T08:53:03.860Z,10.63
2018-03-23T08:55:30.549Z,9.00
2018-03-23T08:57:57.242Z,10.18
2018-03-23T09:00:23.934Z,10.75
2018-03-23T09:02:50.666Z,10.50
2018-03-23T09:05:17.347Z,12.30
2018-03-23T09:07:44.044Z,11.05
2018-03-23T09:10:10.770Z,9.45
2018-03-23T09:12:37.450Z,11.30
2018-03-23T09:15:04.152Z,9.32
2018-03-23T09:17:30.893Z,9.63
2018-03-23T09:19:57.603Z,9.70
2018-03-23T09:22:24.299Z,9.55
2018-03-23T09:24:51.012Z,9.88
2018-03-23T09:27:17.727Z,10.95
2018-03-23T09:29:44.426Z,9.45
2018-03-23T09:32:11.191Z,9.63
2018-03-23T09:34:37.992Z,12.40
2018-03-23T09:37:04.721Z,10.52
2018-03-23T09:39:31.485Z,9.32
2018-03-23T09:41:58.217Z,9.13
2018-03-23T09:44:25.009Z,7.87
2018-03-23T09:46:51.740Z,8.40
2018-03-23T09:49:18.491Z,10.45
2018-03-23T09:51:45.260Z,8.93
2018-03-23T09:54:12.271Z,8.48
2018-03-23T09:56:40.486Z,9.07
2018-03-23T09:59:08.005Z,11.60
2018-03-23T10:01:34.810Z,9.90
2018-03-23T10:04:01.753Z,11.43
2018-03-23T10:06:28.768Z,9.35
2018-03-23T10:08:55.729Z,12.45
2018-03-23T10:11:22.596Z,10.43
2018-03-23T10:13:49.314Z,10.07
2018-03-23T10:16:16.046Z,9.50
2018-03-23T10:18:42.797Z,9.10
2018-03-23T10:21:09.610Z,8.23
2018-03-23T10:23:36.481Z,8.35
2018-03-23T10:26:03.274Z,11.40
2018-03-23T10:28:30.034Z,9.52
2018-03-23T10:30:56.835Z,8.90
2018-03-23T10:33:23.624Z,7.72
2018-03-23T10:35:50.384Z,8.80
2018-03-23T10:38:17.186Z,8.65
2018-03-23T10:40:43.918Z,8.50
2018-03-23T10:43:10.712Z,10.50
2018-03-23T10:45:37.520Z,8.20
2018-03-23T10:48:04.414Z,9.02
2018-03-23T10:50:31.119Z,8.45
2018-03-23T10:52:57.874Z,6.03
2018-03-23T10:55:24.621Z,6.80
2018-03-23T10:57:51.377Z,5.47
2018-03-23T11:00:33.886Z,6.47
2018-03-23T11:03:00.677Z,7.68
2018-03-23T11:05:27.396Z,6.65
2018-03-23T11:07:54.194Z,9.45
2018-03-23T11:10:20.918Z,7.18
2018-03-23T11:12:47.748Z,6.30
2018-03-23T11:15:14.489Z,8.63
2018-03-23T11:17:41.290Z,7.12
2018-03-23T11:20:08.014Z,8.40
2018-03-23T11:22:34.784Z,7.45
2018-03-23T11:25:01.553Z,7.82
2018-03-23T11:27:28.330Z,8.13
2018-03-23T11:29:55.047Z,7.10
2018-03-23T11:32:21.795Z,7.10
2018-03-23T11:34:48.472Z,8.68
2018-03-23T11:37:15.520Z,9.30
2018-03-23T11:39:42.278Z,7.12
2018-03-23T11:42:08.981Z,7.60
2018-03-23T11:44:35.717Z,7.43
2018-03-23T11:47:02.399Z,9.65
2018-03-23T11:49:29.120Z,7.97
2018-03-23T11:51:55.820Z,8.63
2018-03-23T11:54:22.512Z,7.75
2018-03-23T11:56:49.221Z,7.62
2018-03-23T11:59:15.920Z,9.15
2018-03-23T12:01:42.592Z,8.98
2018-03-23T12:04:09.314Z,8.73
2018-03-23T12:06:35.988Z,11.25
2018-03-23T12:09:02.722Z,7.93
2018-03-23T12:11:29.396Z,9.10
2018-03-23T12:13:56.073Z,8.90
2018-03-23T12:16:22.792Z,9.20
2018-03-23T12:18:49.482Z,7.87
2018-03-23T12:21:16.184Z,7.15
2018-03-23T12:23:42.861Z,9.20
2018-03-23T12:26:09.604Z,12.07
2018-03-23T12:28:36.292Z,8.88
2018-03-23T12:31:02.976Z,10.50
2018-03-23T12:33:29.684Z,10.98
2018-03-23T12:35:56.369Z,10.25
2018-03-23T12:38:23.046Z,8.88
2018-03-23T12:40:49.712Z,9.30
2018-03-23T12:43:16.413Z,9.95
2018-03-23T12:45:43.082Z,9.82
2018-03-23T12:48:09.863Z,12.80
2018-03-23T12:50:36.544Z,11.50
2018-03-23T12:53:03.216Z,10.45
2018-03-23T12:55:29.984Z,10.02
2018-03-23T12:57:56.659Z,10.98
2018-03-23T13:00:23.361Z,10.65
2018-03-23T13:02:50.030Z,9.45
2018-03-23T13:05:16.704Z,11.02
2018-03-23T13:07:43.380Z,11.45
2018-03-23T13:10:10.067Z,12.37
2018-03-23T13:12:36.757Z,12.73
2018-03-23T13:15:03.433Z,10.02
2018-03-23T13:17:30.162Z,12.27
2018-03-23T13:19:56.841Z,10.80
2018-03-23T13:22:23.557Z,14.07
2018-03-23T13:24:50.237Z,9.60
2018-03-23T13:27:16.919Z,9.85
2018-03-23T13:29:43.612Z,10.20
2018-03-23T13:32:10.284Z,12.40
2018-03-23T13:34:36.961Z,11.98
2018-03-23T13:37:03.660Z,13.35
2018-03-23T13:39:30.361Z,10.27
2018-03-23T13:41:57.056Z,12.45
2018-03-23T13:44:23.753Z,11.07
2018-03-23T13:46:50.452Z,11.05
2018-03-23T13:49:17.130Z,12.40
2018-03-23T13:51:43.834Z,13.30
2018-03-23T13:54:10.514Z,14.52
2018-03-23T13:56:37.222Z,16.35
2018-03-23T13:59:09.821Z,13.70
2018-03-23T14:01:41.476Z,13.90
2018-03-23T14:04:08.163Z,15.25
2018-03-23T14:06:34.858Z,16.75
2018-03-23T14:09:01.611Z,17.37
2018-03-23T14:11:28.290Z,14.82
2018-03-23T14:13:55.009Z,15.45
2018-03-23T14:16:21.739Z,16.37
2018-03-23T14:18:48.486Z,15.20
2018-03-23T14:21:15.205Z,14.40
2018-03-23T14:23:41.892Z,15.32
2018-03-23T14:26:08.603Z,17.25
2018-03-23T14:28:35.281Z,15.57
2018-03-23T14:31:01.976Z,18.92
2018-03-23T14:33:28.648Z,15.90
2018-03-23T14:35:55.334Z,17.87
2018-03-23T14:38:22.066Z,14.55
2018-03-23T14:40:48.793Z,17.80
2018-03-23T14:43:15.474Z,13.18
2018-03-23T14:45:42.153Z,17.27
2018-03-23T14:48:08.848Z,17.80
2018-03-23T14:50:36.073Z,16.62
2018-03-23T14:53:02.771Z,16.05
2018-03-23T14:55:29.485Z,15.98
2018-03-23T14:57:56.215Z,19.60
2018-03-23T15:00:22.898Z,18.60
2018-03-23T15:02:49.586Z,17.87
2018-03-23T15:05:16.303Z,17.83
2018-03-23T15:07:42.992Z,19.10
2018-03-23T15:10:09.682Z,18.05
2018-03-23T15:12:36.388Z,18.95
2018-03-23T15:15:03.060Z,17.83
2018-03-23T15:17:29.752Z,17.42
2018-03-23T15:19:56.454Z,17.52
2018-03-23T15:22:23.136Z,20.58
2018-03-23T15:24:49.900Z,20.52
2018-03-23T15:27:16.581Z,20.67
2018-03-23T15:29:43.293Z,18.87
2018-03-23T15:32:09.995Z,21.33
2018-03-23T15:34:36.698Z,21.58
2018-03-23T15:37:03.391Z,21.85
2018-03-23T15:39:30.151Z,20.88
2018-03-23T15:41:56.822Z,19.90
2018-03-23T15:44:23.509Z,18.25
2018-03-23T15:46:50.252Z,21.37
2018-03-23T15:49:16.939Z,23.05
2018-03-23T15:51:43.662Z,20.30
2018-03-23T15:54:10.358Z,26.00
2018-03-23T15:56:37.056Z,21.70
2018-03-23T15:59:03.863Z,20.50
2018-03-23T16:01:30.553Z,22.55
2018-03-23T16:03:57.257Z,22.00
2018-03-23T16:06:23.961Z,20.05
2018-03-23T16:08:50.669Z,21.87
2018-03-23T16:11:17.382Z,19.48
2018-03-23T16:13:44.136Z,17.65
2018-03-23T16:16:10.818Z,19.73
2018-03-23T16:18:37.495Z,22.17
2018-03-23T16:21:04.184Z,23.60
2018-03-23T16:23:30.890Z,23.48
2018-03-23T16:25:57.599Z,20.95
2018-03-23T16:28:24.312Z,20.60
2018-03-23T16:30:51.031Z,17.60
2018-03-23T16:33:17.739Z,19.27
2018-03-23T16:35:44.426Z,20.30
2018-03-23T16:38:11.115Z,22.73
2018-03-23T16:40:37.829Z,17.42
2018-03-23T16:43:04.537Z,19.48
2018-03-23T16:45:31.433Z,19.92
2018-03-23T16:47:58.123Z,24.27
2018-03-23T16:50:24.917Z,21.90
2018-03-23T16:52:51.751Z,22.77
2018-03-23T16:55:18.494Z,22.70
2018-03-23T16:57:45.180Z,19.52
2018-03-23T17:00:11.890Z,20.30
2018-03-23T17:02:38.609Z,24.67
2018-03-23T17:05:05.368Z,19.15
2018-03-23T17:07:32.059Z,21.02
2018-03-23T17:09:58.744Z,21.48
2018-03-23T17:12:25.466Z,23.38
2018-03-23T17:14:52.162Z,21.70
2018-03-23T17:17:18.848Z,30.37
2018-03-23T17:19:45.539Z,27.58
2018-03-23T17:22:12.289Z,22.73
2018-03-23T17:24:38.966Z,23.10
2018-03-23T17:27:05.661Z,21.00
2018-03-23T17:29:32.377Z,20.42
2018-03-23T17:31:59.152Z,22.23
2018-03-23T17:34:25.922Z,19.70
2018-03-23T17:36:52.649Z,22.55
2018-03-23T17:39:19.329Z,24.98
2018-03-23T17:41:46.009Z,23.38
2018-03-23T17:44:12.694Z,24.55
2018-03-23T17:46:39.376Z,21.50
2018-03-23T17:49:06.181Z,22.00
2018-03-23T17:51:32.873Z,20.80
2018-03-23T17:53:59.559Z,23.55
2018-03-23T17:56:26.261Z,22.83
2018-03-23T17:58:52.937Z,23.90
2018-03-23T18:01:19.632Z,23.73
2018-03-23T18:03:46.304Z,19.77
2018-03-23T18:06:12.984Z,26.52
2018-03-23T18:08:39.705Z,21.52
2018-03-23T18:11:06.405Z,26.60
2018-03-23T18:13:33.086Z,28.15
2018-03-23T18:15:59.765Z,26.27
2018-03-23T18:18:26.444Z,28.55
2018-03-23T18:20:53.144Z,29.05
2018-03-23T18:23:19.867Z,25.55
2018-03-23T18:25:46.601Z,30.85
2018-03-23T18:28:13.286Z,33.65
2018-03-23T18:30:39.988Z,27.73
2018-03-23T18:33:06.672Z,28.75
2018-03-23T18:35:33.362Z,26.30
2018-03-23T18:38:00.143Z,28.98
2018-03-23T18:40:26.829Z,27.40
2018-03-23T18:42:53.514Z,28.73
2018-03-23T18:45:20.252Z,33.83
2018-03-23T18:47:46.944Z,27.67
2018-03-23T18:50:13.657Z,24.95
2018-03-23T18:52:40.423Z,28.12
2018-03-23T18:55:07.176Z,26.92
2018-03-23T18:57:33.888Z,25.92
2018-03-23T19:00:00.611Z,26.58
2018-03-23T19:02:27.293Z,27.13
2018-03-23T19:04:53.991Z,26.50
2018-03-23T19:07:20.738Z,23.42
2018-03-23T19:09:47.504Z,26.17
2018-03-23T19:12:14.209Z,26.05
2018-03-23T19:14:40.900Z,24.08
2018-03-23T19:17:07.604Z,30.12
2018-03-23T19:19:34.293Z,26.55
2018-03-23T19:22:00.991Z,30.67
2018-03-23T19:24:27.699Z,27.83
2018-03-23T19:26:54.373Z,31.33
2018-03-23T19:29:21.079Z,26.75
2018-03-23T19:31:47.790Z,30.58
2018-03-23T19:34:14.486Z,28.23
2018-03-23T19:36:41.223Z,30.35
2018-03-23T19:39:07.928Z,27.83
2018-03-23T19:41:34.658Z,30.88
2018-03-23T19:44:01.354Z,27.33
2018-03-23T19:46:28.041Z,26.77
2018-03-23T19:48:54.750Z,26.25
2018-03-23T19:51:21.445Z,26.92
2018-03-23T19:53:48.184Z,30.45
2018-03-23T19:56:15.699Z,25.92
2018-03-23T19:58:42.434Z,27.85
2018-03-23T20:01:09.226Z,29.30
2018-03-23T20:03:36.042Z,29.55
2018-03-23T20:06:02.752Z,31.50
2018-03-23T20:08:29.434Z,29.85
2018-03-23T20:10:56.152Z,28.08
2018-03-23T20:13:22.840Z,31.70
2018-03-23T20:15:49.536Z,27.73
2018-03-23T20:18:21.932Z,26.75
2018-03-23T20:20:54.216Z,24.92
2018-03-23T20:23:20.914Z,29.60
2018-03-23T20:25:47.600Z,32.50
2018-03-23T20:28:20.122Z,30.08
2018-03-23T20:30:46.805Z,30.45
2018-03-23T20:33:13.555Z,32.45
2018-03-23T20:35:40.237Z,30.10
2018-03-23T20:38:06.921Z,31.45
2018-03-23T20:40:33.640Z,27.55
2018-03-23T20:43:00.343Z,29.50
2018-03-23T20:45:27.018Z,30.67
2018-03-23T20:47:53.730Z,34.78
2018-03-23T20:50:20.424Z,31.95
2018-03-23T20:52:47.114Z,29.87
2018-03-23T20:55:13.809Z,30.92
2018-03-23T20:57:40.508Z,31.17
2018-03-23T21:00:07.223Z,31.80
2018-03-23T21:02:33.975Z,28.15
2018-03-23T21:05:00.709Z,32.00
2018-03-23T21:07:27.428Z,34.95
2018-03-23T21:09:54.133Z,30.50
2018-03-23T21:12:20.831Z,35.05
2018-03-23T21:14:47.519Z,32.33
2018-03-23T21:17:14.201Z,28.87
2018-03-23T21:19:40.885Z,27.45
2018-03-23T21:22:07.595Z,29.05
2018-03-23T21:24:34.294Z,32.35
2018-03-23T21:27:01.005Z,29.40
2018-03-23T21:29:27.684Z,27.77
2018-03-23T21:31:54.388Z,26.65
2018-03-23T21:34:21.097Z,29.98
2018-03-23T21:36:47.785Z,29.80
2018-03-23T21:39:14.469Z,31.37
2018-03-23T21:41:41.172Z,27.90
2018-03-23T21:44:07.877Z,31.70
2018-03-23T21:46:34.568Z,29.85
2018-03-23T21:49:01.276Z,33.75
2018-03-23T21:51:27.965Z,28.85
2018-03-23T21:53:54.673Z,26.85
2018-03-23T21:56:21.362Z,27.42
2018-03-23T21:58:48.050Z,27.90
2018-03-23T22:01:14.720Z,29.55
2018-03-23T22:03:41.410Z,26.92
2018-03-23T22:06:08.120Z,31.62
2018-03-23T22:08:34.825Z,27.45
2018-03-23T22:11:01.509Z,30.77
2018-03-23T22:13:28.189Z,29.05
2018-03-23T22:15:55.083Z,29.30
2018-03-23T22:18:21.769Z,32.78
2018-03-23T22:20:48.452Z,23.17
2018-03-23T22:23:15.170Z,29.83
2018-03-23T22:25:41.880Z,27.33
2018-03-23T22:28:08.604Z,27.42
2018-03-23T22:30:35.432Z,28.12
2018-03-23T22:33:02.161Z,32.40
2018-03-23T22:35:28.844Z,26.58
2018-03-23T22:37:55.528Z,25.75
2018-03-23T22:40:22.219Z,32.20
2018-03-23T22:42:48.944Z,27.58
2018-03-23T22:45:15.689Z,29.08
2018-03-23T22:47:42.396Z,34.10
2018-03-23T22:50:09.090Z,30.65
2018-03-23T22:52:36.632Z,29.35
2018-03-23T22:55:03.368Z,29.02
2018-03-23T22:57:30.046Z,31.40
2018-03-23T22:59:56.777Z,29.83
2018-03-23T23:02:23.484Z,30.42
2018-03-23T23:04:50.179Z,29.77
2018-03-23T23:07:16.903Z,27.33
2018-03-23T23:09:43.586Z,27.45
2018-03-23T23:12:10.297Z,30.65
2018-03-23T23:14:36.994Z,31.20
2018-03-23T23:17:03.698Z,30.25
2018-03-23T23:19:30.381Z,31.50
2018-03-23T23:21:57.103Z,33.10
2018-03-23T23:24:23.811Z,31.50
2018-03-23T23:26:50.586Z,30.92
2018-03-23T23:29:17.264Z,37.55
2018-03-23T23:31:43.940Z,31.17
2018-03-23T23:34:10.657Z,30.23
2018-03-23T23:36:37.359Z,30.52
2018-03-23T23:39:04.057Z,32.60
2018-03-23T23:41:30.753Z,31.77
2018-03-23T23:43:57.436Z,33.97
2018-03-23T23:46:24.154Z,32.95
2018-03-23T23:48:50.846Z,32.03
2018-03-23T23:51:17.533Z,34.10
2018-03-23T23:53:44.244Z,30.80
2018-03-23T23:56:10.924Z,32.22
2018-03-23T23:58:37.644Z,31.67
